Time;durP1;ratioP1;P1;durP2;ratioP2;P2;SDS_P1;SDS_P2;PMS_P1;PMS_P2;Temp;Humidity;BMP_temperature;BMP_pressure;BME280_temperature;BME280_humidity;BME280_pressure;Samples;Min_cycle;Max_cycle;Signal;HPM_P1;HPM_P2
2022/07/13 00:00:35;;;;;;;12.40;7.65;;;;;;;20.86;72.45;102033.84;5070774;28;20071;-72
2022/07/13 00:03:01;;;;;;;10.93;6.90;;;;;;;20.89;73.85;102028.88;5078224;28;20035;-71
2022/07/13 00:05:26;;;;;;;12.13;7.78;;;;;;;20.83;73.67;102018.38;5071161;28;20036;-72
2022/07/13 00:07:52;;;;;;;13.40;7.68;;;;;;;20.83;74.16;102023.06;5086160;28;20045;-73
2022/07/13 00:10:17;;;;;;;9.27;6.82;;;;;;;20.83;73.66;102017.53;5052775;28;20577;-73
2022/07/13 00:12:42;;;;;;;9.90;7.30;;;;;;;20.81;73.86;102003.84;5070509;28;20040;-73
2022/07/13 00:15:09;;;;;;;8.30;7.15;;;;;;;20.81;73.44;102000.22;5070139;28;20048;-72
2022/07/13 00:17:35;;;;;;;9.80;7.60;;;;;;;20.78;74.92;101989.44;5070995;28;20063;-72
2022/07/13 00:20:00;;;;;;;11.35;7.50;;;;;;;20.80;73.42;101993.81;5070298;28;20436;-73
2022/07/13 00:22:26;;;;;;;9.13;6.93;;;;;;;20.84;70.97;102000.81;5071228;28;20094;-72
2022/07/13 00:24:51;;;;;;;12.32;7.95;;;;;;;20.81;72.76;101995.56;5091028;28;20451;-72
2022/07/13 00:27:16;;;;;;;11.07;7.15;;;;;;;20.78;73.19;101987.53;5077991;28;20115;-73
2022/07/13 00:29:42;;;;;;;12.30;7.05;;;;;;;20.77;73.72;101988.56;5070535;28;20025;-72
2022/07/13 00:32:07;;;;;;;12.98;7.53;;;;;;;20.74;73.61;101986.09;5073438;28;20036;-72
2022/07/13 00:34:32;;;;;;;11.52;7.85;;;;;;;20.73;73.36;101984.34;5075511;28;20040;-73
2022/07/13 00:36:58;;;;;;;15.38;6.93;;;;;;;20.74;73.27;101985.22;5070595;28;20059;-72
2022/07/13 00:39:24;;;;;;;12.85;7.18;;;;;;;20.73;72.88;101978.81;5086062;28;20101;-72
2022/07/13 00:41:49;;;;;;;10.77;7.60;;;;;;;20.71;71.74;101969.81;5082970;28;20169;-72
2022/07/13 00:44:16;;;;;;;13.75;8.02;;;;;;;20.68;73.11;101969.25;5089068;28;20028;-72
2022/07/13 00:46:44;;;;;;;12.45;7.20;;;;;;;20.64;72.96;101960.38;5073876;28;20060;-72
2022/07/13 00:49:12;;;;;;;9.82;7.18;;;;;;;20.63;73.48;101955.88;5069577;28;20033;-72
2022/07/13 00:51:38;;;;;;;9.63;7.35;;;;;;;20.59;72.22;101941.47;5086073;28;20363;-73
2022/07/13 00:54:04;;;;;;;9.25;6.35;;;;;;;20.59;72.34;101955.28;5069166;28;20123;-72
2022/07/13 00:56:30;;;;;;;8.80;6.00;;;;;;;20.61;73.40;101958.78;5070281;28;20438;-72
2022/07/13 00:58:58;;;;;;;9.40;6.53;;;;;;;20.58;72.49;101948.03;5088718;28;20036;-72
2022/07/13 01:01:23;;;;;;;9.82;6.57;;;;;;;20.60;73.08;101947.84;5071208;28;20033;-72
2022/07/13 01:03:49;;;;;;;9.98;6.60;;;;;;;20.56;70.91;101946.41;5077358;28;20046;-72
2022/07/13 01:06:16;;;;;;;8.02;6.72;;;;;;;20.55;72.38;101941.91;5068538;28;20063;-72
2022/07/13 01:08:42;;;;;;;10.43;6.85;;;;;;;20.52;72.54;101945.00;5069610;28;20487;-73
2022/07/13 01:11:08;;;;;;;9.18;6.20;;;;;;;20.50;73.02;101935.97;5084957;28;20039;-72
2022/07/13 01:13:35;;;;;;;11.07;6.43;;;;;;;20.49;73.17;101935.09;5068084;28;20485;-72
2022/07/13 01:16:01;;;;;;;8.65;6.47;;;;;;;20.49;73.34;101942.50;5068735;28;20407;-72
2022/07/13 01:18:28;;;;;;;9.13;6.53;;;;;;;20.51;72.26;101927.50;5068813;28;20071;-72
2022/07/13 01:20:53;;;;;;;9.57;7.55;;;;;;;20.52;70.71;101933.94;5069467;28;20077;-72
2022/07/13 01:23:19;;;;;;;10.48;6.43;;;;;;;20.52;72.09;101934.81;5069625;28;20036;-72
2022/07/13 01:25:44;;;;;;;10.38;6.68;;;;;;;;;;5085216;28;20166;-72
2022/07/13 01:28:13;;;;;;;7.95;6.20;;;;;;;20.49;72.66;101932.31;5086968;28;20108;-72
2022/07/13 01:30:39;;;;;;;10.27;6.88;;;;;;;20.46;71.71;101937.25;5082361;28;20033;-72
2022/07/13 01:33:04;;;;;;;9.30;7.13;;;;;;;20.44;71.98;101931.88;5077206;28;20055;-70
2022/07/13 01:35:30;;;;;;;9.07;6.38;;;;;;;20.48;70.59;101930.59;5068479;28;20093;-72
2022/07/13 01:37:55;;;;;;;8.55;6.85;;;;;;;20.45;71.89;101932.72;5089464;28;20024;-72
2022/07/13 01:40:21;;;;;;;7.60;5.93;;;;;;;20.42;70.93;101930.25;5081061;28;20040;-72
2022/07/13 01:42:51;;;;;;;9.45;5.85;;;;;;;20.42;72.12;101933.03;5086109;28;20063;-72
2022/07/13 01:45:22;;;;;;;12.73;6.18;;;;;;;20.41;72.32;101929.38;5084691;28;20137;-71
2022/07/13 01:47:51;;;;;;;10.95;6.28;;;;;;;20.42;71.30;101924.72;5087131;28;20123;-72
2022/07/13 01:50:19;;;;;;;8.15;5.78;;;;;;;20.44;71.31;101922.72;5067430;28;20027;-72
2022/07/13 01:52:46;;;;;;;10.30;7.30;;;;;;;20.43;69.07;101918.22;5067643;28;20117;-73
2022/07/13 01:55:13;;;;;;;8.00;6.10;;;;;;;20.45;69.27;101922.53;5067570;28;20143;-73
2022/07/13 01:57:41;;;;;;;8.23;5.78;;;;;;;20.44;70.74;101925.47;5069854;28;20067;-72
2022/07/13 02:00:10;;;;;;;8.20;5.72;;;;;;;20.43;68.87;101923.72;5086118;28;20475;-72
2022/07/13 02:02:39;;;;;;;9.33;5.90;;;;;;;20.41;70.71;101926.63;5076729;28;20032;-71
2022/07/13 02:05:07;;;;;;;11.00;6.20;;;;;;;20.39;72.05;101923.16;5068396;28;20492;-72
2022/07/13 02:07:32;;;;;;;7.72;5.95;;;;;;;20.41;71.79;101914.69;5067825;28;20133;-72
2022/07/13 02:09:59;;;;;;;7.78;6.13;;;;;;;20.38;71.46;101911.22;5066812;28;20094;-72
2022/07/13 02:12:24;;;;;;;9.68;5.82;;;;;;;20.38;71.00;101910.34;5068105;28;20586;-72
2022/07/13 02:14:49;;;;;;;11.13;5.88;;;;;;;20.37;71.05;101906.69;5067273;28;20071;-72
2022/07/13 02:17:16;;;;;;;7.90;5.80;;;;;;;20.32;71.49;101899.88;5083566;28;20051;-73
2022/07/13 02:19:45;;;;;;;7.70;5.32;;;;;;;20.29;69.25;101891.91;5066465;28;20032;-73
2022/07/13 02:22:10;;;;;;;6.80;5.43;;;;;;;20.30;70.74;101886.22;5067335;28;20043;-71
2022/07/13 02:24:37;;;;;;;8.65;5.47;;;;;;;20.29;71.19;101902.97;5086028;28;20395;-72
2022/07/13 02:27:02;;;;;;;10.52;5.53;;;;;;;20.27;70.59;101902.22;5077288;28;20033;-73
2022/07/13 02:29:28;;;;;;;9.48;5.40;;;;;;;20.30;70.44;101899.16;5068371;28;20059;-72
2022/07/13 02:31:53;;;;;;;6.25;4.93;;;;;;;20.28;71.60;101891.00;5069045;28;20039;-72
2022/07/13 02:34:18;;;;;;;7.70;5.30;;;;;;;20.27;72.06;101889.28;5075414;28;20028;-72
2022/07/13 02:36:45;;;;;;;7.63;5.80;;;;;;;20.27;66.60;101883.75;5067171;28;20067;-73
2022/07/13 02:39:11;;;;;;;6.85;5.10;;;;;;;20.26;68.79;101881.13;5068048;28;20168;-73
2022/07/13 02:41:39;;;;;;;8.40;4.75;;;;;;;20.31;67.14;101889.84;5066767;28;20499;-73
2022/07/13 02:44:04;;;;;;;7.80;4.88;;;;;;;20.33;70.09;101876.75;5084150;28;20072;-69
2022/07/13 02:46:29;;;;;;;8.02;5.18;;;;;;;20.30;70.12;101866.00;5073528;28;20116;-71
2022/07/13 02:48:55;;;;;;;7.55;4.57;;;;;;;20.29;69.21;101859.59;5066165;28;20039;-72
2022/07/13 02:51:21;;;;;;;6.82;4.50;;;;;;;20.29;69.56;101858.75;5066971;28;20044;-72
2022/07/13 02:53:46;;;;;;;7.47;4.80;;;;;;;20.27;68.44;101875.44;5068417;28;20077;-72
2022/07/13 02:56:12;;;;;;;7.45;4.55;;;;;;;20.29;65.61;101875.31;5065866;28;20052;-73
2022/07/13 02:58:38;;;;;;;5.90;4.53;;;;;;;20.33;65.15;101880.41;5066882;28;20352;-72
2022/07/13 03:01:03;;;;;;;6.70;4.60;;;;;;;20.35;67.59;101872.81;5066640;28;20067;-73
2022/07/13 03:03:29;;;;;;;6.57;4.68;;;;;;;20.34;67.28;101876.59;5075917;28;20066;-73
2022/07/13 03:05:56;;;;;;;6.90;4.97;;;;;;;20.32;66.75;101875.88;5066816;28;20063;-72
2022/07/13 03:08:22;;;;;;;6.45;4.43;;;;;;;20.35;66.99;101881.09;5066909;28;20032;-72
2022/07/13 03:10:47;;;;;;;8.80;4.63;;;;;;;20.34;65.38;101870.22;5067608;28;20109;-73
2022/07/13 03:13:13;;;;;;;5.50;4.35;;;;;;;20.37;66.30;101878.19;5078558;28;20047;-72
2022/07/13 03:15:38;;;;;;;5.85;4.85;;;;;;;20.36;68.16;101870.91;5081835;28;20021;-72
2022/07/13 03:18:03;;;;;;;6.47;4.18;;;;;;;20.39;64.59;101871.50;5068254;28;20029;-73
2022/07/13 03:20:29;;;;;;;6.35;4.38;;;;;;;20.38;68.82;101875.28;5085390;28;20506;-73
2022/07/13 03:22:54;;;;;;;4.93;4.32;;;;;;;20.38;67.93;101869.75;5086996;28;20078;-72
2022/07/13 03:25:20;;;;;;;5.05;3.97;;;;;;;20.38;68.53;101863.38;5086725;28;20036;-73
2022/07/13 03:27:46;;;;;;;7.40;4.20;;;;;;;20.36;68.56;101862.63;5069998;28;20025;-72
2022/07/13 03:30:12;;;;;;;7.18;4.50;;;;;;;20.36;68.06;101870.91;5066291;28;20040;-71
2022/07/13 03:32:38;;;;;;;4.35;3.75;;;;;;;20.40;62.89;101861.31;5087153;28;20049;-73
2022/07/13 03:35:04;;;;;;;4.25;3.85;;;;;;;20.39;64.59;101852.16;5081178;28;20024;-71
2022/07/13 03:37:30;;;;;;;6.15;4.57;;;;;;;20.40;66.61;101850.25;5068517;28;20100;-72
2022/07/13 03:39:56;;;;;;;5.82;3.80;;;;;;;20.42;66.31;101862.03;5069911;28;20495;-71
2022/07/13 03:42:22;;;;;;;15.50;4.40;;;;;;;20.37;66.52;101859.69;5069772;28;20037;-73
2022/07/13 03:44:48;;;;;;;6.70;4.15;;;;;;;20.41;63.57;101856.66;5070142;28;20032;-73
2022/07/13 03:47:14;;;;;;;5.10;4.05;;;;;;;20.42;65.56;101853.72;5069752;28;20302;-72
2022/07/13 03:49:39;;;;;;;7.22;3.92;;;;;;;20.42;64.70;101853.72;5052420;28;20048;-72
2022/07/13 03:52:05;;;;;;;6.53;3.90;;;;;;;20.44;65.87;101854.47;5070103;28;20060;-71
2022/07/13 03:54:31;;;;;;;8.18;4.18;;;;;;;20.47;64.65;101853.28;5070234;28;20498;-72
2022/07/13 03:56:57;;;;;;;7.78;4.28;;;;;;;20.46;65.41;101857.06;5069286;28;20043;-72
2022/07/13 03:59:23;;;;;;;5.85;3.85;;;;;;;20.46;64.74;101848.78;5086368;28;20398;-72
2022/07/13 04:01:48;;;;;;;7.75;4.47;;;;;;;;;;5081233;28;20029;-72
2022/07/13 04:04:14;;;;;;;9.65;4.10;;;;;;;;;;5084588;28;20036;-72
2022/07/13 04:06:41;;;;;;;6.95;3.95;;;;;;;20.54;63.87;101860.00;5069729;28;20041;-72
2022/07/13 04:09:07;;;;;;;8.05;4.03;;;;;;;20.50;65.14;101853.00;5080466;28;20472;-71
2022/07/13 04:11:33;;;;;;;13.57;4.00;;;;;;;20.48;64.27;101847.66;5074961;28;20020;-72
2022/07/13 04:13:58;;;;;;;7.78;3.97;;;;;;;20.49;64.08;101857.69;5089787;28;20024;-72
2022/07/13 04:16:24;;;;;;;4.40;3.67;;;;;;;20.52;63.83;101853.75;5076728;28;20139;-72
2022/07/13 04:18:50;;;;;;;6.05;4.50;;;;;;;20.52;63.70;101846.31;5068368;28;20506;-71
2022/07/13 04:21:16;;;;;;;6.60;3.83;;;;;;;;;;5069349;28;20035;-72
2022/07/13 04:23:42;;;;;;;8.10;4.00;;;;;;;20.52;64.83;101834.41;5069579;28;20032;-72
2022/07/13 04:26:07;;;;;;;6.50;3.92;;;;;;;20.48;65.12;101839.34;5070532;28;20048;-72
2022/07/13 04:28:33;;;;;;;7.45;4.07;;;;;;;20.53;63.28;101838.91;5069769;28;20123;-72
2022/07/13 04:30:59;;;;;;;8.85;4.20;;;;;;;20.53;64.37;101827.84;5080207;28;20475;-71
2022/07/13 04:33:28;;;;;;;7.90;4.00;;;;;;;20.55;65.40;101828.53;5077419;28;20028;-70
2022/07/13 04:35:53;;;;;;;5.45;3.97;;;;;;;20.55;64.18;101829.41;5069392;28;20408;-72
2022/07/13 04:38:20;;;;;;;7.82;3.72;;;;;;;20.57;65.65;101832.06;5068404;28;20132;-70
2022/07/13 04:40:46;;;;;;;7.95;3.90;;;;;;;20.60;65.63;101831.72;5069093;28;20111;-71
2022/07/13 04:43:12;;;;;;;6.65;3.90;;;;;;;20.66;64.07;101827.47;5068516;28;20020;-73
2022/07/13 04:45:37;;;;;;;7.65;3.70;;;;;;;20.69;65.55;101830.81;5068455;28;20051;-72
2022/07/13 04:48:03;;;;;;;5.30;3.97;;;;;;;20.77;63.69;101830.06;5068575;28;20097;-72
2022/07/13 04:50:31;;;;;;;6.43;3.65;;;;;;;20.80;63.49;101838.91;5069751;28;20044;-73
2022/07/13 04:52:57;;;;;;;9.60;4.10;;;;;;;20.85;64.29;101831.03;5068896;28;20425;-72
2022/07/13 04:55:23;;;;;;;7.40;4.15;;;;;;;20.89;63.22;101832.47;5068026;28;20036;-71
2022/07/13 04:57:48;;;;;;;8.65;4.20;;;;;;;20.93;62.81;101830.22;5068409;28;20059;-72
2022/07/13 05:00:14;;;;;;;7.07;4.47;;;;;;;20.96;63.95;101832.69;5067953;28;20029;-72
2022/07/13 05:02:39;;;;;;;9.85;3.95;;;;;;;21.00;62.98;101827.75;5075844;28;20551;-71
2022/07/13 05:05:06;;;;;;;11.45;4.07;;;;;;;21.05;63.30;101836.44;5070993;28;20070;-71
2022/07/13 05:07:31;;;;;;;9.23;4.30;;;;;;;21.10;62.38;101829.41;5068806;28;20082;-73
2022/07/13 05:09:57;;;;;;;6.90;3.78;;;;;;;21.13;62.84;101826.34;5067715;28;20076;-72
2022/07/13 05:12:23;;;;;;;7.32;3.83;;;;;;;21.18;62.47;101823.09;5070802;28;20433;-71
2022/07/13 05:14:48;;;;;;;6.57;3.63;;;;;;;21.19;63.01;101822.06;5090140;28;20081;-72
2022/07/13 05:17:14;;;;;;;8.30;4.00;;;;;;;21.21;62.14;101827.44;5071035;28;20155;-72
2022/07/13 05:19:39;;;;;;;6.28;3.70;;;;;;;21.25;62.92;101823.34;5072797;28;20037;-72
2022/07/13 05:22:06;;;;;;;7.90;3.67;;;;;;;21.31;62.78;101826.41;5068638;28;20044;-72
2022/07/13 05:24:32;;;;;;;8.38;4.15;;;;;;;21.33;62.86;101823.47;5068828;28;20040;-72
2022/07/13 05:26:57;;;;;;;5.18;3.60;;;;;;;21.37;62.15;101816.56;5068090;28;20506;-72
2022/07/13 05:29:23;;;;;;;7.97;3.92;;;;;;;21.42;61.39;101821.66;5068202;28;20157;-72
2022/07/13 05:31:48;;;;;;;6.50;3.80;;;;;;;21.46;62.50;101828.59;5067390;28;20030;-71
2022/07/13 05:34:14;;;;;;;4.97;3.80;;;;;;;21.48;61.45;101821.88;5071188;28;20050;-72
2022/07/13 05:36:44;;;;;;;5.03;3.90;;;;;;;21.53;60.74;101826.94;5066924;28;20028;-72
2022/07/13 05:39:09;;;;;;;6.10;3.90;;;;;;;21.63;61.15;101836.88;5067733;28;20035;-70
2022/07/13 05:41:35;;;;;;;6.47;3.90;;;;;;;21.70;61.32;101836.28;5066751;28;20483;-70
2022/07/13 05:44:00;;;;;;;8.15;3.50;;;;;;;21.76;59.99;101842.03;5068567;28;20036;-72
2022/07/13 05:46:26;;;;;;;4.47;3.63;;;;;;;21.77;61.73;101841.00;5067998;28;20039;-71
2022/07/13 05:48:52;;;;;;;4.57;3.47;;;;;;;21.75;60.16;101842.19;5067295;28;20123;-72
2022/07/13 05:51:17;;;;;;;7.43;3.67;;;;;;;21.71;60.32;101844.41;5069480;28;20112;-72
2022/07/13 05:53:43;;;;;;;6.18;3.67;;;;;;;21.65;60.19;101847.81;5063950;28;20124;-72
2022/07/13 05:56:09;;;;;;;8.05;3.78;;;;;;;21.70;61.62;101850.13;5067727;28;20036;-71
2022/07/13 05:58:35;;;;;;;7.47;3.75;;;;;;;21.83;60.65;101848.69;5085197;28;20062;-68
2022/07/13 06:01:00;;;;;;;8.40;3.70;;;;;;;22.01;60.84;101851.44;5069119;28;20142;-72
2022/07/13 06:03:25;;;;;;;6.00;3.67;;;;;;;22.13;60.53;101847.38;5076609;28;20480;-72
2022/07/13 06:05:51;;;;;;;6.28;3.72;;;;;;;22.24;60.74;101849.00;5067744;28;20040;-72
2022/07/13 06:08:16;;;;;;;6.15;3.53;;;;;;;22.30;61.81;101856.69;5068743;28;20040;-72
2022/07/13 06:10:41;;;;;;;6.00;3.50;;;;;;;22.40;61.40;101857.44;5069341;28;20073;-72
2022/07/13 06:13:07;;;;;;;5.55;3.28;;;;;;;22.48;59.75;101867.72;5084948;28;20024;-72
2022/07/13 06:43:06;;;;;;;5.28;3.75;;;;;;;23.68;57.65;101850.81;5120877;23;20286;-85
2022/07/13 06:45:31;;;;;;;7.07;3.95;;;;;;;23.74;59.51;101842.88;5006980;28;20033;-86
2022/07/13 06:47:56;;;;;;;6.38;4.25;;;;;;;23.68;56.46;101838.84;4999764;28;20026;-85
2022/07/13 06:50:22;;;;;;;10.20;3.80;;;;;;;23.76;57.04;101840.78;4986881;28;20482;-85
2022/07/13 06:52:47;;;;;;;9.68;3.80;;;;;;;23.78;57.92;101844.22;4987660;28;20485;-86
2022/07/13 06:55:15;;;;;;;6.90;3.95;;;;;;;23.93;57.90;101831.38;4987389;28;20097;-86
2022/07/13 06:57:40;;;;;;;4.72;3.65;;;;;;;24.08;58.27;101831.53;4985278;28;20085;-85
2022/07/13 07:00:07;;;;;;;5.68;3.83;;;;;;;24.23;57.02;101843.69;5006111;28;20041;-85
2022/07/13 07:02:32;;;;;;;10.23;3.75;;;;;;;24.29;57.79;101842.97;5003498;28;20071;-85
2022/07/13 07:04:58;;;;;;;4.85;3.92;;;;;;;24.37;56.31;101845.78;4987089;28;20046;-85
2022/07/13 07:07:23;;;;;;;6.30;4.30;;;;;;;24.44;57.90;101843.16;4994094;28;20034;-86
2022/07/13 07:09:49;;;;;;;7.22;3.85;;;;;;;24.62;57.50;101851.25;5006627;28;20022;-86
2022/07/13 07:12:15;;;;;;;7.03;3.50;;;;;;;24.67;57.77;101846.91;4994919;28;20117;-86
2022/07/13 07:14:40;;;;;;;8.15;4.10;;;;;;;24.73;56.71;101845.31;5007164;28;20117;-89
2022/07/13 07:17:05;;;;;;;6.68;4.47;;;;;;;24.77;56.22;101840.28;4990090;28;20041;-85
2022/07/13 07:19:31;;;;;;;8.25;4.25;;;;;;;24.64;57.09;101844.47;5006899;28;20049;-85
2022/07/13 07:21:56;;;;;;;11.60;4.32;;;;;;;24.65;55.39;101843.44;5006895;28;20188;-85
2022/07/13 07:24:22;;;;;;;10.40;4.38;;;;;;;24.76;56.77;101833.84;5008250;28;20034;-86
2022/07/13 07:26:48;;;;;;;5.70;4.63;;;;;;;25.22;56.76;101839.53;4992207;28;20690;-85
2022/07/13 07:29:14;;;;;;;12.73;5.25;;;;;;;25.41;54.65;101829.84;4990209;28;20132;-87
2022/07/13 07:31:40;;;;;;;8.90;5.13;;;;;;;25.36;55.05;101833.19;4983563;28;20361;-86
2022/07/13 07:34:07;;;;;;;7.75;4.93;;;;;;;25.41;53.61;101841.88;5004496;28;20034;-86
2022/07/13 07:36:32;;;;;;;6.15;4.47;;;;;;;25.43;55.32;101838.91;5007746;28;20061;-86
2022/07/13 07:38:58;;;;;;;6.40;4.82;;;;;;;25.47;55.04;101831.91;4991015;28;20078;-86
2022/07/13 07:41:23;;;;;;;9.00;4.85;;;;;;;25.52;55.89;101836.94;4993310;28;20445;-87
2022/07/13 07:43:49;;;;;;;9.35;4.80;;;;;;;25.49;55.20;101843.72;5009863;28;20396;-86
2022/07/13 07:46:14;;;;;;;11.70;4.60;;;;;;;25.62;56.08;101837.53;4993886;28;20034;-86
2022/07/13 07:48:40;;;;;;;6.72;4.45;;;;;;;25.65;56.55;101826.91;5020676;28;20502;-87
2022/07/13 07:51:06;;;;;;;7.88;5.10;;;;;;;25.89;56.80;101834.22;5029789;28;20025;-85
2022/07/13 07:53:31;;;;;;;6.70;4.45;;;;;;;26.02;56.51;101833.59;5019602;28;20037;-85
2022/07/13 07:55:57;;;;;;;6.90;4.38;;;;;;;26.16;56.80;101841.13;5010921;28;20045;-85
2022/07/13 07:58:22;;;;;;;6.75;4.72;;;;;;;26.22;56.45;101833.03;5010326;28;20405;-87
2022/07/13 08:00:48;;;;;;;8.93;5.10;;;;;;;26.27;54.56;101836.97;5029352;28;20484;-86
2022/07/13 08:03:13;;;;;;;8.10;4.97;;;;;;;26.30;55.22;101831.03;5009181;28;20064;-88
2022/07/13 08:05:41;;;;;;;9.70;4.28;;;;;;;26.34;55.38;101823.97;5029085;28;20034;-86
2022/07/13 08:08:06;;;;;;;11.38;5.25;;;;;;;26.38;54.91;101833.72;5029112;28;20511;-86
2022/07/13 08:10:31;;;;;;;7.05;4.75;;;;;;;26.65;55.43;101829.44;5026656;28;20246;-86
2022/07/13 08:13:05;;;;;;;9.40;5.45;;;;;;;26.75;55.24;101839.44;5022687;28;20092;-86
2022/07/13 08:15:33;;;;;;;9.98;5.00;;;;;;;26.81;53.76;101842.31;5025720;28;20041;-85
2022/07/13 08:17:58;;;;;;;7.72;4.68;;;;;;;26.86;54.16;101837.03;5022060;28;20236;-87
2022/07/13 08:20:24;;;;;;;9.65;5.32;;;;;;;26.80;53.76;101839.72;5010550;28;20180;-87
2022/07/13 08:22:50;;;;;;;6.28;5.00;;;;;;;26.69;53.79;101843.88;5024943;28;20120;-88
2022/07/13 08:25:16;;;;;;;5.38;3.80;;;;;;;26.98;56.44;101839.31;5008194;28;20042;-87
2022/07/13 08:27:41;;;;;;;8.85;5.13;;;;;;;27.14;53.83;101844.69;5007208;28;20045;-85
2022/07/13 08:30:07;;;;;;;10.18;4.50;;;;;;;27.23;52.94;101843.53;5025168;28;20392;-86
2022/07/13 08:32:33;;;;;;;7.00;4.78;;;;;;;27.41;53.59;101849.53;5024444;28;20038;-86
2022/07/13 08:40:26;;;;;;;6.32;4.35;;;;;;;28.02;52.54;101834.25;5029956;28;20538;-86
2022/07/13 08:42:51;;;;;;;8.43;4.50;;;;;;;28.05;52.22;101833.84;5023480;28;20061;-86
2022/07/13 08:45:17;;;;;;;7.30;4.57;;;;;;;27.88;51.33;101844.47;5023898;28;20481;-86
2022/07/13 08:47:42;;;;;;;9.07;4.10;;;;;;;27.96;51.27;101849.91;5010149;28;20038;-86
2022/07/13 08:50:09;;;;;;;5.70;3.78;;;;;;;27.90;52.33;101846.00;5010425;28;20034;-87
2022/07/13 08:52:37;;;;;;;7.38;4.15;;;;;;;28.00;50.95;101854.03;5009857;28;20435;-86
2022/07/13 08:55:04;;;;;;;10.90;4.43;;;;;;;28.02;52.14;101851.91;5009222;28;20026;-87
2022/07/13 08:57:34;;;;;;;6.13;3.72;;;;;;;28.17;52.81;101844.31;5009633;28;20041;-87
2022/07/13 09:00:03;;;;;;;7.85;4.03;;;;;;;28.35;49.53;101848.53;5028037;28;20095;-86
2022/07/13 09:02:29;;;;;;;9.10;4.18;;;;;;;28.56;49.98;101850.41;5010758;28;20037;-87
2022/07/13 09:04:54;;;;;;;6.55;3.67;;;;;;;28.53;49.57;101848.03;5009844;28;20044;-87
2022/07/13 09:07:20;;;;;;;5.68;3.83;;;;;;;28.56;49.28;101850.41;5008565;28;20107;-85
2022/07/13 09:09:45;;;;;;;7.32;3.70;;;;;;;28.85;49.30;101858.56;5009693;28;20453;-87
2022/07/13 09:12:16;;;;;;;9.90;3.72;;;;;;;29.15;50.20;101859.19;5032468;28;20497;-86
2022/07/13 09:14:52;;;;;;;6.80;3.55;;;;;;;29.43;49.37;101853.44;5008681;28;20168;-87
2022/07/13 09:17:25;;;;;;;7.13;3.50;;;;;;;29.44;48.50;101852.38;5008414;28;20132;-87
2022/07/13 09:19:51;;;;;;;6.45;3.80;;;;;;;29.52;49.46;101859.75;5008312;28;20041;-86
2022/07/13 09:22:16;;;;;;;6.43;3.38;;;;;;;29.65;46.93;101856.09;5008152;28;20108;-87
2022/07/13 09:24:44;;;;;;;4.63;3.03;;;;;;;29.79;47.25;101866.28;5015782;28;20041;-89
2022/07/13 09:27:09;;;;;;;5.97;3.13;;;;;;;29.62;46.72;101867.78;5007575;28;20461;-87
2022/07/13 09:29:36;;;;;;;4.57;3.00;;;;;;;29.87;46.15;101863.28;4991844;28;20060;-86
2022/07/13 09:32:04;;;;;;;6.50;3.20;;;;;;;30.29;46.50;101866.75;5010027;28;20037;-86
2022/07/13 09:34:51;;;;;;;4.30;3.10;;;;;;;30.55;46.66;101865.88;5008445;28;20496;-86
2022/07/13 09:37:18;;;;;;;5.70;2.88;;;;;;;30.50;46.17;101868.50;5009564;28;20100;-87
2022/07/13 09:39:59;;;;;;;6.20;3.40;;;;;;;30.33;46.40;101873.69;4991256;28;20029;-87
2022/07/13 09:42:35;;;;;;;6.78;3.00;;;;;;;30.23;46.26;101876.06;5014956;28;20115;-88
2022/07/13 09:47:55;;;;;;;4.70;3.33;;;;;;;29.65;46.12;101861.72;5022992;28;20485;-87
2022/07/13 09:50:35;;;;;;;7.07;3.00;;;;;;;29.40;45.51;101867.03;5009731;28;20038;-87
2022/07/13 09:53:01;;;;;;;6.88;3.20;;;;;;;29.15;46.25;101869.53;5014633;28;20037;-86
2022/07/13 09:55:27;;;;;;;5.30;2.80;;;;;;;29.14;47.05;101870.56;5024374;28;20025;-88
2022/07/13 09:57:57;;;;;;;7.07;2.90;;;;;;;29.16;47.50;101869.31;5022843;28;20034;-87
2022/07/13 10:00:23;;;;;;;4.75;2.90;;;;;;;29.19;45.89;101870.81;5007332;28;20493;-86
2022/07/13 10:02:50;;;;;;;9.23;3.40;;;;;;;29.23;47.35;101881.41;5009763;28;20045;-87
2022/07/13 10:05:18;;;;;;;5.97;3.05;;;;;;;29.53;46.16;101874.63;5009697;28;20037;-86
2022/07/13 10:07:44;;;;;;;4.03;2.63;;;;;;;29.82;46.51;101876.22;4991926;28;20397;-86
2022/07/13 10:10:12;;;;;;;4.57;2.75;;;;;;;30.02;46.82;101879.91;5007586;28;20029;-86
2022/07/13 10:12:37;;;;;;;5.25;2.67;;;;;;;30.21;46.05;101881.00;5007816;28;20033;-87
2022/07/13 10:15:04;;;;;;;4.13;2.70;;;;;;;30.30;46.09;101879.72;5009166;28;20040;-88
2022/07/13 10:17:29;;;;;;;8.15;3.00;;;;;;;30.08;44.61;101870.63;5023654;28;20042;-87
2022/07/13 10:19:55;;;;;;;3.20;2.70;;;;;;;30.22;45.44;101880.81;5024128;28;20601;-87
2022/07/13 10:22:30;;;;;;;4.53;2.58;;;;;;;30.27;45.77;101870.88;5008827;28;20475;-87
2022/07/13 10:24:58;;;;;;;2.78;2.58;;;;;;;30.40;45.58;101884.91;5009716;28;20445;-86
2022/07/13 10:27:31;;;;;;;9.95;3.28;;;;;;;30.12;44.99;101888.75;5023708;28;20103;-87
2022/07/13 10:29:58;;;;;;;6.80;2.97;;;;;;;29.89;44.86;101885.50;5027814;28;20037;-87
2022/07/13 10:32:26;;;;;;;5.18;2.95;;;;;;;29.86;45.63;101885.94;5016177;28;20237;-87
2022/07/13 10:34:56;;;;;;;6.38;2.78;;;;;;;30.06;44.67;101891.56;5029550;28;20021;-88
2022/07/13 10:37:23;;;;;;;4.82;2.33;;;;;;;30.04;45.34;101885.31;5027203;28;20387;-86
2022/07/13 10:40:11;;;;;;;7.93;2.38;;;;;;;30.26;45.75;101889.66;5022479;28;20109;-88
2022/07/13 10:43:04;;;;;;;3.58;2.30;;;;;;;30.61;45.76;101900.66;5019621;28;20050;-88
2022/07/13 10:45:33;;;;;;;3.25;2.58;;;;;;;30.86;44.46;101890.47;5011278;28;20496;-88
2022/07/13 10:48:04;;;;;;;4.53;2.30;;;;;;;30.88;43.10;101895.88;5019370;28;20046;-87
2022/07/13 10:50:36;;;;;;;4.15;2.63;;;;;;;30.84;43.84;101897.41;5009375;28;20036;-88
2022/07/13 10:53:02;;;;;;;3.80;2.40;;;;;;;31.06;44.21;101892.34;5025734;28;20167;-87
2022/07/13 10:55:33;;;;;;;3.97;2.35;;;;;;;31.13;42.83;101898.81;5008975;28;20442;-90
2022/07/13 10:58:00;;;;;;;4.43;2.50;;;;;;;30.97;42.13;101900.19;5005259;28;20052;-88
2022/07/13 11:00:43;;;;;;;4.15;2.53;;;;;;;30.99;43.38;101889.56;5024321;28;20590;-86
2022/07/13 11:03:31;;;;;;;4.03;2.60;;;;;;;31.04;42.26;101902.97;5009505;28;20038;-88
2022/07/13 11:06:25;;;;;;;5.55;2.63;;;;;;;31.07;42.66;101902.53;5020653;28;20052;-86
2022/07/13 11:09:11;;;;;;;5.32;2.78;;;;;;;30.93;41.90;101911.00;5003727;28;20046;-87
2022/07/13 11:12:18;;;;;;;7.72;2.63;;;;;;;30.86;42.19;101904.53;5005805;28;20092;-87
2022/07/13 11:14:48;;;;;;;4.07;2.67;;;;;;;30.67;42.17;101903.44;5007747;28;20527;-88
2022/07/13 11:17:18;;;;;;;5.30;2.30;;;;;;;30.79;42.66;101908.44;5006764;28;20111;-89
2022/07/13 11:19:56;;;;;;;4.20;2.53;;;;;;;31.20;41.50;101900.53;5026261;28;20041;-89
2022/07/13 11:22:23;;;;;;;3.53;2.33;;;;;;;31.71;40.63;101904.41;5028562;28;20400;-87
2022/07/13 11:25:16;;;;;;;5.60;2.65;;;;;;;32.29;43.03;101907.06;5027691;28;20041;-88
2022/07/13 11:27:52;;;;;;;5.97;2.55;;;;;;;32.69;41.95;101904.78;5021425;28;20029;-87
2022/07/13 11:30:34;;;;;;;8.52;2.80;;;;;;;32.72;38.61;101903.44;5027560;28;20029;-87
2022/07/13 11:33:00;;;;;;;7.93;3.40;;;;;;;32.54;39.35;101903.41;5026350;28;20038;-88
2022/07/13 11:35:25;;;;;;;8.00;3.28;;;;;;;32.21;39.48;101901.69;5028327;28;20041;-87
2022/07/13 11:37:51;;;;;;;3.80;2.15;;;;;;;31.83;40.64;101899.81;4995993;28;20038;-89
2022/07/13 11:40:31;;;;;;;4.30;2.58;;;;;;;31.74;39.89;101898.34;5024503;28;20038;-89
2022/07/13 11:43:00;;;;;;;4.75;2.92;;;;;;;31.70;41.56;101897.91;5008104;28;20065;-87
2022/07/13 11:45:29;;;;;;;5.82;2.70;;;;;;;31.60;40.22;101911.63;5007037;28;20109;-88
2022/07/13 11:47:57;;;;;;;4.53;2.67;;;;;;;31.51;39.58;101904.53;5007427;28;20476;-88
2022/07/13 11:50:23;;;;;;;3.53;2.47;;;;;;;31.60;40.25;101900.34;5010086;28;20041;-89
2022/07/13 11:52:48;;;;;;;6.45;2.78;;;;;;;31.59;42.11;101894.97;5009038;28;20038;-89
2022/07/13 11:55:14;;;;;;;3.88;2.30;;;;;;;31.80;40.59;101897.41;5023953;28;20101;-89
2022/07/13 11:57:39;;;;;;;4.80;2.45;;;;;;;31.56;39.45;101896.25;5010489;28;20575;-87
2022/07/13 12:00:07;;;;;;;5.88;2.40;;;;;;;31.54;40.49;101900.41;5013064;28;20037;-87
2022/07/13 12:02:39;;;;;;;4.82;2.30;;;;;;;31.63;39.78;101901.88;5012142;28;20505;-89